sensor_id;sensor_type;location;lat;lon;timestamp;pressure;altitude;pressure_sealevel;temperature;humidity
13027;BME280;6580;42.680;23.324;2022-12-07T00:01:05;95262.22;;;8.25;100.00
13027;BME280;6580;42.680;23.324;2022-12-07T00:03:32;95270.69;;;8.48;100.00
13027;BME280;6580;42.680;23.324;2022-12-07T00:06:00;95275.06;;;8.30;100.00
13027;BME280;6580;42.680;23.324;2022-12-07T00:08:27;95271.41;;;8.40;100.00
13027;BME280;6580;42.680;23.324;2022-12-07T00:11:00;95271.00;;;8.35;100.00
13027;BME280;6580;42.680;23.324;2022-12-07T00:13:27;95270.19;;;8.25;100.00
13027;BME280;6580;42.680;23.324;2022-12-07T00:15:54;95254.69;;;8.02;100.00
13027;BME280;6580;42.680;23.324;2022-12-07T00:18:21;95272.97;;;8.05;100.00
13027;BME280;6580;42.680;23.324;2022-12-07T00:20:48;95269.06;;;7.90;100.00
13027;BME280;6580;42.680;23.324;2022-12-07T00:23:15;95259.72;;;7.96;100.00
13027;BME280;6580;42.680;23.324;2022-12-07T00:25:42;95267.94;;;8.02;100.00
13027;BME280;6580;42.680;23.324;2022-12-07T00:28:10;95271.72;;;8.09;100.00
13027;BME280;6580;42.680;23.324;2022-12-07T00:30:36;95269.75;;;8.11;100.00
13027;BME280;6580;42.680;23.324;2022-12-07T00:33:03;95268.63;;;8.13;100.00
13027;BME280;6580;42.680;23.324;2022-12-07T00:35:30;95271.16;;;8.15;100.00
13027;BME280;6580;42.680;23.324;2022-12-07T00:37:57;95271.72;;;8.00;100.00
13027;BME280;6580;42.680;23.324;2022-12-07T00:40:24;95278.00;;;8.08;100.00
13027;BME280;6580;42.680;23.324;2022-12-07T00:42:51;95269.91;;;8.19;100.00
13027;BME280;6580;42.680;23.324;2022-12-07T00:45:19;95261.63;;;8.12;100.00
13027;BME280;6580;42.680;23.324;2022-12-07T00:47:46;95278.25;;;8.14;100.00
13027;BME280;6580;42.680;23.324;2022-12-07T00:50:14;95259.56;;;8.25;100.00
13027;BME280;6580;42.680;23.324;2022-12-07T00:52:41;95260.28;;;8.27;100.00
13027;BME280;6580;42.680;23.324;2022-12-07T00:55:08;95257.59;;;8.37;100.00
13027;BME280;6580;42.680;23.324;2022-12-07T00:57:35;95256.63;;;8.19;100.00
13027;BME280;6580;42.680;23.324;2022-12-07T01:00:02;95260.69;;;8.23;100.00
13027;BME280;6580;42.680;23.324;2022-12-07T01:02:31;95255.53;;;8.21;100.00
13027;BME280;6580;42.680;23.324;2022-12-07T01:04:58;95263.59;;;8.20;100.00
13027;BME280;6580;42.680;23.324;2022-12-07T01:07:24;95252.34;;;8.18;100.00
13027;BME280;6580;42.680;23.324;2022-12-07T01:09:52;95251.47;;;8.27;100.00
13027;BME280;6580;42.680;23.324;2022-12-07T01:12:22;95258.59;;;8.07;100.00
13027;BME280;6580;42.680;23.324;2022-12-07T01:14:49;95254.56;;;7.94;100.00
13027;BME280;6580;42.680;23.324;2022-12-07T01:17:19;95251.72;;;8.14;100.00
13027;BME280;6580;42.680;23.324;2022-12-07T01:19:49;95228.03;;;8.03;100.00
13027;BME280;6580;42.680;23.324;2022-12-07T01:22:17;95241.03;;;8.16;100.00
13027;BME280;6580;42.680;23.324;2022-12-07T01:24:44;95239.59;;;8.12;100.00
13027;BME280;6580;42.680;23.324;2022-12-07T01:27:13;95235.97;;;8.13;100.00
13027;BME280;6580;42.680;23.324;2022-12-07T01:29:41;95221.59;;;8.06;100.00
13027;BME280;6580;42.680;23.324;2022-12-07T01:32:10;95244.34;;;8.27;100.00
13027;BME280;6580;42.680;23.324;2022-12-07T01:34:40;95233.88;;;8.26;100.00
13027;BME280;6580;42.680;23.324;2022-12-07T01:37:08;95234.84;;;8.15;100.00
13027;BME280;6580;42.680;23.324;2022-12-07T01:39:37;95239.19;;;8.07;100.00
13027;BME280;6580;42.680;23.324;2022-12-07T01:42:08;95240.31;;;8.04;100.00
13027;BME280;6580;42.680;23.324;2022-12-07T01:47:38;95240.75;;;8.00;100.00
13027;BME280;6580;42.680;23.324;2022-12-07T01:50:06;95215.06;;;7.91;100.00
13027;BME280;6580;42.680;23.324;2022-12-07T01:52:37;95227.06;;;8.04;100.00
13027;BME280;6580;42.680;23.324;2022-12-07T01:55:08;95231.66;;;8.02;100.00
13027;BME280;6580;42.680;23.324;2022-12-07T01:57:39;95225.13;;;8.16;100.00
13027;BME280;6580;42.680;23.324;2022-12-07T02:00:08;95233.06;;;8.16;100.00
13027;BME280;6580;42.680;23.324;2022-12-07T02:02:38;95219.22;;;8.03;100.00
13027;BME280;6580;42.680;23.324;2022-12-07T02:05:08;95218.84;;;8.17;100.00
13027;BME280;6580;42.680;23.324;2022-12-07T02:07:40;95216.72;;;8.20;100.00
13027;BME280;6580;42.680;23.324;2022-12-07T02:10:15;95221.88;;;8.22;100.00
13027;BME280;6580;42.680;23.324;2022-12-07T02:12:43;95224.50;;;8.12;100.00
13027;BME280;6580;42.680;23.324;2022-12-07T02:15:12;95215.59;;;8.23;100.00
13027;BME280;6580;42.680;23.324;2022-12-07T02:17:45;95223.16;;;8.08;100.00
13027;BME280;6580;42.680;23.324;2022-12-07T02:20:24;95208.66;;;7.84;100.00
13027;BME280;6580;42.680;23.324;2022-12-07T02:23:33;95225.81;;;7.99;100.00
13027;BME280;6580;42.680;23.324;2022-12-07T02:29:14;95212.94;;;8.04;100.00
13027;BME280;6580;42.680;23.324;2022-12-07T02:31:46;95206.78;;;8.32;100.00
13027;BME280;6580;42.680;23.324;2022-12-07T02:34:21;95202.03;;;8.26;100.00
13027;BME280;6580;42.680;23.324;2022-12-07T02:36:54;95202.00;;;8.35;100.00
13027;BME280;6580;42.680;23.324;2022-12-07T02:39:28;95207.31;;;8.35;100.00
13027;BME280;6580;42.680;23.324;2022-12-07T02:42:02;95202.88;;;8.26;100.00
13027;BME280;6580;42.680;23.324;2022-12-07T02:44:34;95209.56;;;8.21;100.00
13027;BME280;6580;42.680;23.324;2022-12-07T02:47:06;95216.72;;;8.20;100.00
13027;BME280;6580;42.680;23.324;2022-12-07T02:49:34;95204.28;;;8.21;100.00
13027;BME280;6580;42.680;23.324;2022-12-07T02:52:03;95204.44;;;8.10;100.00
13027;BME280;6580;42.680;23.324;2022-12-07T02:54:31;95203.69;;;8.27;100.00
13027;BME280;6580;42.680;23.324;2022-12-07T02:57:02;95195.06;;;8.25;100.00
13027;BME280;6580;42.680;23.324;2022-12-07T02:59:43;95192.13;;;8.09;100.00
13027;BME280;6580;42.680;23.324;2022-12-07T03:02:18;95194.13;;;7.88;100.00
13027;BME280;6580;42.680;23.324;2022-12-07T03:05:00;95190.22;;;7.92;100.00
13027;BME280;6580;42.680;23.324;2022-12-07T03:07:39;95185.09;;;7.81;100.00
13027;BME280;6580;42.680;23.324;2022-12-07T03:10:14;95186.19;;;7.88;100.00
13027;BME280;6580;42.680;23.324;2022-12-07T03:12:49;95189.78;;;7.97;100.00
13027;BME280;6580;42.680;23.324;2022-12-07T03:15:26;95190.50;;;7.89;100.00
13027;BME280;6580;42.680;23.324;2022-12-07T03:17:55;95179.22;;;7.87;100.00
13027;BME280;6580;42.680;23.324;2022-12-07T03:20:25;95188.88;;;7.69;100.00
13027;BME280;6580;42.680;23.324;2022-12-07T03:22:56;95189.59;;;7.62;100.00
13027;BME280;6580;42.680;23.324;2022-12-07T03:25:24;95186.81;;;7.63;100.00
13027;BME280;6580;42.680;23.324;2022-12-07T03:27:54;95184.28;;;7.71;100.00
13027;BME280;6580;42.680;23.324;2022-12-07T03:30:28;95198.09;;;7.56;100.00
13027;BME280;6580;42.680;23.324;2022-12-07T03:32:59;95201.03;;;7.62;100.00
13027;BME280;6580;42.680;23.324;2022-12-07T03:35:29;95195.97;;;7.88;100.00
13027;BME280;6580;42.680;23.324;2022-12-07T03:38:00;95200.72;;;7.56;100.00
13027;BME280;6580;42.680;23.324;2022-12-07T03:40:37;95193.50;;;7.48;100.00
13027;BME280;6580;42.680;23.324;2022-12-07T03:43:06;95190.00;;;7.57;100.00
13027;BME280;6580;42.680;23.324;2022-12-07T03:45:40;95192.94;;;7.64;100.00
13027;BME280;6580;42.680;23.324;2022-12-07T03:48:10;95185.53;;;7.58;100.00
13027;BME280;6580;42.680;23.324;2022-12-07T03:50:45;95192.13;;;7.54;100.00
13027;BME280;6580;42.680;23.324;2022-12-07T03:53:22;95201.88;;;7.53;100.00
13027;BME280;6580;42.680;23.324;2022-12-07T03:55:53;95193.34;;;7.59;100.00
13027;BME280;6580;42.680;23.324;2022-12-07T03:58:21;95191.81;;;7.57;100.00
13027;BME280;6580;42.680;23.324;2022-12-07T04:00:51;95182.34;;;7.54;100.00
13027;BME280;6580;42.680;23.324;2022-12-07T04:03:18;95182.19;;;7.56;100.00
13027;BME280;6580;42.680;23.324;2022-12-07T04:05:45;95183.72;;;7.58;100.00
13027;BME280;6580;42.680;23.324;2022-12-07T04:08:13;95153.63;;;7.40;100.00
13027;BME280;6580;42.680;23.324;2022-12-07T04:10:40;95185.00;;;7.54;100.00
13027;BME280;6580;42.680;23.324;2022-12-07T04:13:07;95185.16;;;7.53;100.00
13027;BME280;6580;42.680;23.324;2022-12-07T04:15:33;95174.81;;;7.59;100.00
13027;BME280;6580;42.680;23.324;2022-12-07T04:18:02;95179.41;;;7.67;100.00
13027;BME280;6580;42.680;23.324;2022-12-07T04:20:30;95171.88;;;7.62;100.00
13027;BME280;6580;42.680;23.324;2022-12-07T04:22:57;95179.53;;;7.56;100.00
13027;BME280;6580;42.680;23.324;2022-12-07T04:25:23;95176.22;;;7.54;100.00
13027;BME280;6580;42.680;23.324;2022-12-07T04:27:51;95186.94;;;7.52;100.00
13027;BME280;6580;42.680;23.324;2022-12-07T04:30:21;95182.63;;;7.42;100.00
13027;BME280;6580;42.680;23.324;2022-12-07T04:32:47;95194.88;;;7.43;100.00
13027;BME280;6580;42.680;23.324;2022-12-07T04:35:16;95194.88;;;7.52;100.00
13027;BME280;6580;42.680;23.324;2022-12-07T04:37:43;95186.38;;;7.58;100.00
13027;BME280;6580;42.680;23.324;2022-12-07T04:40:10;95176.22;;;7.54;100.00
13027;BME280;6580;42.680;23.324;2022-12-07T04:42:39;95185.00;;;7.35;100.00
13027;BME280;6580;42.680;23.324;2022-12-07T04:45:09;95187.91;;;7.32;100.00
13027;BME280;6580;42.680;23.324;2022-12-07T04:47:35;95198.78;;;7.29;100.00
13027;BME280;6580;42.680;23.324;2022-12-07T04:50:03;95200.88;;;7.35;100.00
13027;BME280;6580;42.680;23.324;2022-12-07T04:52:32;95204.25;;;7.47;100.00
13027;BME280;6580;42.680;23.324;2022-12-07T04:54:58;95194.75;;;7.54;100.00
13027;BME280;6580;42.680;23.324;2022-12-07T04:57:25;95189.47;;;7.54;100.00
13027;BME280;6580;42.680;23.324;2022-12-07T04:59:54;95196.03;;;7.40;100.00
13027;BME280;6580;42.680;23.324;2022-12-07T05:02:21;95196.28;;;7.28;100.00
13027;BME280;6580;42.680;23.324;2022-12-07T05:04:49;95202.28;;;7.30;100.00
13027;BME280;6580;42.680;23.324;2022-12-07T05:07:17;95199.38;;;7.23;100.00
13027;BME280;6580;42.680;23.324;2022-12-07T05:09:49;95211.47;;;7.16;100.00
13027;BME280;6580;42.680;23.324;2022-12-07T05:12:16;95210.22;;;7.30;100.00
13027;BME280;6580;42.680;23.324;2022-12-07T05:14:44;95204.09;;;7.29;100.00
13027;BME280;6580;42.680;23.324;2022-12-07T05:17:11;95194.59;;;7.08;100.00
13027;BME280;6580;42.680;23.324;2022-12-07T05:19:40;95200.88;;;7.16;100.00
13027;BME280;6580;42.680;23.324;2022-12-07T05:22:10;95193.34;;;7.12;100.00
13027;BME280;6580;42.680;23.324;2022-12-07T05:24:38;95194.78;;;7.25;100.00
13027;BME280;6580;42.680;23.324;2022-12-07T05:27:08;95199.47;;;7.22;100.00
13027;BME280;6580;42.680;23.324;2022-12-07T05:29:39;95197.97;;;7.38;100.00
13027;BME280;6580;42.680;23.324;2022-12-07T05:32:07;95202.13;;;7.31;100.00
13027;BME280;6580;42.680;23.324;2022-12-07T05:34:35;95201.03;;;7.34;100.00
13027;BME280;6580;42.680;23.324;2022-12-07T05:37:02;95193.78;;;7.26;100.00
13027;BME280;6580;42.680;23.324;2022-12-07T05:39:29;95197.69;;;7.32;100.00
13027;BME280;6580;42.680;23.324;2022-12-07T05:41:57;95192.13;;;7.25;100.00
13027;BME280;6580;42.680;23.324;2022-12-07T05:44:43;95198.94;;;7.18;100.00
13027;BME280;6580;42.680;23.324;2022-12-07T05:47:15;95177.03;;;7.16;100.00
13027;BME280;6580;42.680;23.324;2022-12-07T05:49:46;95183.75;;;7.30;100.00
13027;BME280;6580;42.680;23.324;2022-12-07T05:52:15;95186.41;;;7.20;100.00
13027;BME280;6580;42.680;23.324;2022-12-07T05:54:43;95188.63;;;7.25;100.00
13027;BME280;6580;42.680;23.324;2022-12-07T05:57:10;95178.16;;;7.04;100.00
13027;BME280;6580;42.680;23.324;2022-12-07T05:59:36;95184.56;;;7.11;100.00
13027;BME280;6580;42.680;23.324;2022-12-07T06:02:25;95185.00;;;7.16;100.00
13027;BME280;6580;42.680;23.324;2022-12-07T06:04:52;95197.41;;;7.25;100.00
13027;BME280;6580;42.680;23.324;2022-12-07T06:07:19;95179.56;;;7.18;100.00
13027;BME280;6580;42.680;23.324;2022-12-07T06:09:45;95181.78;;;7.22;100.00
13027;BME280;6580;42.680;23.324;2022-12-07T06:12:14;95191.53;;;7.31;100.00
13027;BME280;6580;42.680;23.324;2022-12-07T06:14:58;95182.91;;;7.29;100.00
13027;BME280;6580;42.680;23.324;2022-12-07T06:17:26;95184.03;;;7.17;100.00
13027;BME280;6580;42.680;23.324;2022-12-07T06:19:54;95194.19;;;7.31;100.00
13027;BME280;6580;42.680;23.324;2022-12-07T06:22:22;95194.63;;;7.27;100.00
13027;BME280;6580;42.680;23.324;2022-12-07T06:25:07;95194.88;;;7.33;100.00
13027;BME280;6580;42.680;23.324;2022-12-07T06:27:34;95200.75;;;7.46;100.00
13027;BME280;6580;42.680;23.324;2022-12-07T06:30:00;95187.91;;;7.61;100.00
13027;BME280;6580;42.680;23.324;2022-12-07T06:32:33;95189.56;;;7.71;100.00
13027;BME280;6580;42.680;23.324;2022-12-07T06:35:01;95200.16;;;7.71;100.00
13027;BME280;6580;42.680;23.324;2022-12-07T06:37:28;95196.00;;;7.59;100.00
13027;BME280;6580;42.680;23.324;2022-12-07T06:39:56;95198.66;;;7.50;100.00
13027;BME280;6580;42.680;23.324;2022-12-07T06:42:22;95201.16;;;7.70;100.00
13027;BME280;6580;42.680;23.324;2022-12-07T06:44:49;95210.34;;;7.66;100.00
13027;BME280;6580;42.680;23.324;2022-12-07T06:47:16;95193.22;;;7.61;100.00
13027;BME280;6580;42.680;23.324;2022-12-07T06:49:45;95199.63;;;7.58;100.00
13027;BME280;6580;42.680;23.324;2022-12-07T06:52:11;95203.38;;;7.75;100.00
13027;BME280;6580;42.680;23.324;2022-12-07T06:54:39;95204.94;;;7.68;100.00
13027;BME280;6580;42.680;23.324;2022-12-07T06:57:05;95213.00;;;7.76;100.00
13027;BME280;6580;42.680;23.324;2022-12-07T06:59:32;95209.78;;;7.82;100.00
13027;BME280;6580;42.680;23.324;2022-12-07T07:01:59;95214.28;;;7.81;100.00
13027;BME280;6580;42.680;23.324;2022-12-07T07:04:26;95201.84;;;7.82;100.00
13027;BME280;6580;42.680;23.324;2022-12-07T07:06:54;95204.28;;;8.11;100.00
13027;BME280;6580;42.680;23.324;2022-12-07T07:09:21;95198.00;;;8.03;100.00
13027;BME280;6580;42.680;23.324;2022-12-07T07:11:48;95194.50;;;8.12;100.00
13027;BME280;6580;42.680;23.324;2022-12-07T07:14:15;95209.72;;;8.10;100.00
13027;BME280;6580;42.680;23.324;2022-12-07T07:16:44;95205.19;;;8.39;100.00
13027;BME280;6580;42.680;23.324;2022-12-07T07:19:12;95204.56;;;8.27;100.00
13027;BME280;6580;42.680;23.324;2022-12-07T07:21:39;95202.97;;;8.34;100.00
13027;BME280;6580;42.680;23.324;2022-12-07T07:24:08;95203.69;;;8.27;100.00
13027;BME280;6580;42.680;23.324;2022-12-07T07:26:36;95196.97;;;8.32;100.00
13027;BME280;6580;42.680;23.324;2022-12-07T07:29:03;95197.34;;;8.47;100.00
13027;BME280;6580;42.680;23.324;2022-12-07T07:31:30;95215.03;;;8.56;100.00
13027;BME280;6580;42.680;23.324;2022-12-07T07:33:57;95207.22;;;8.54;100.00
13027;BME280;6580;42.680;23.324;2022-12-07T07:36:23;95209.56;;;8.67;100.00
13027;BME280;6580;42.680;23.324;2022-12-07T07:38:51;95161.06;;;8.38;100.00
13027;BME280;6580;42.680;23.324;2022-12-07T07:41:19;95216.34;;;8.79;100.00
13027;BME280;6580;42.680;23.324;2022-12-07T07:43:46;95218.50;;;8.93;100.00
13027;BME280;6580;42.680;23.324;2022-12-07T07:46:14;95176.75;;;8.85;100.00
13027;BME280;6580;42.680;23.324;2022-12-07T07:48:41;95208.66;;;9.03;100.00
13027;BME280;6580;42.680;23.324;2022-12-07T07:51:08;95210.03;;;9.07;100.00
13027;BME280;6580;42.680;23.324;2022-12-07T07:53:35;95206.88;;;9.20;100.00
13027;BME280;6580;42.680;23.324;2022-12-07T07:56:03;95211.66;;;9.34;100.00
13027;BME280;6580;42.680;23.324;2022-12-07T07:58:32;95207.03;;;9.36;100.00
13027;BME280;6580;42.680;23.324;2022-12-07T08:01:03;95200.97;;;9.26;100.00
13027;BME280;6580;42.680;23.324;2022-12-07T08:03:30;95207.81;;;9.02;100.00
13027;BME280;6580;42.680;23.324;2022-12-07T08:05:57;95201.09;;;8.81;100.00
13027;BME280;6580;42.680;23.324;2022-12-07T08:08:23;95208.56;;;8.68;100.00
13027;BME280;6580;42.680;23.324;2022-12-07T08:10:52;95213.47;;;8.36;100.00
13027;BME280;6580;42.680;23.324;2022-12-07T08:13:18;95202.66;;;8.74;100.00
13027;BME280;6580;42.680;23.324;2022-12-07T08:15:48;95203.28;;;9.12;100.00
13027;BME280;6580;42.680;23.324;2022-12-07T08:18:15;95203.28;;;9.12;100.00
13027;BME280;6580;42.680;23.324;2022-12-07T08:20:42;95204.09;;;9.12;100.00
13027;BME280;6580;42.680;23.324;2022-12-07T08:23:10;95205.09;;;9.11;100.00
13027;BME280;6580;42.680;23.324;2022-12-07T08:25:37;95202.25;;;8.96;100.00
13027;BME280;6580;42.680;23.324;2022-12-07T08:28:04;95202.31;;;8.86;100.00
13027;BME280;6580;42.680;23.324;2022-12-07T08:30:31;95195.78;;;8.81;100.00
13027;BME280;6580;42.680;23.324;2022-12-07T08:33:00;95199.72;;;8.77;100.00
13027;BME280;6580;42.680;23.324;2022-12-07T08:35:29;95207.97;;;9.01;100.00
13027;BME280;6580;42.680;23.324;2022-12-07T08:37:56;95196.00;;;9.14;100.00
13027;BME280;6580;42.680;23.324;2022-12-07T08:40:24;95203.44;;;9.28;100.00
13027;BME280;6580;42.680;23.324;2022-12-07T08:42:55;95191.22;;;9.17;100.00
13027;BME280;6580;42.680;23.324;2022-12-07T08:45:23;95202.94;;;9.24;100.00
13027;BME280;6580;42.680;23.324;2022-12-07T08:47:53;95183.88;;;9.29;100.00
13027;BME280;6580;42.680;23.324;2022-12-07T08:50:25;95199.50;;;9.32;100.00
13027;BME280;6580;42.680;23.324;2022-12-07T08:52:54;95191.22;;;9.17;100.00
13027;BME280;6580;42.680;23.324;2022-12-07T08:55:22;95180.00;;;9.23;100.00
13027;BME280;6580;42.680;23.324;2022-12-07T08:57:51;95187.16;;;9.40;100.00
13027;BME280;6580;42.680;23.324;2022-12-07T09:00:21;95183.34;;;9.60;99.62
13027;BME280;6580;42.680;23.324;2022-12-07T09:02:48;95171.72;;;9.61;98.85
13027;BME280;6580;42.680;23.324;2022-12-07T09:05:15;95172.84;;;9.76;98.70
13027;BME280;6580;42.680;23.324;2022-12-07T09:07:50;95169.88;;;9.79;97.55
13027;BME280;6580;42.680;23.324;2022-12-07T09:10:20;95162.81;;;9.96;96.35
13027;BME280;6580;42.680;23.324;2022-12-07T09:12:47;95151.84;;;9.91;94.91
13027;BME280;6580;42.680;23.324;2022-12-07T09:15:14;95155.47;;;10.07;94.62
13027;BME280;6580;42.680;23.324;2022-12-07T09:17:42;95154.16;;;9.94;95.49
13027;BME280;6580;42.680;23.324;2022-12-07T09:20:10;95151.25;;;9.79;96.35
13027;BME280;6580;42.680;23.324;2022-12-07T09:22:40;95149.88;;;9.75;96.99
13027;BME280;6580;42.680;23.324;2022-12-07T09:25:11;95132.56;;;9.71;97.36
13027;BME280;6580;42.680;23.324;2022-12-07T09:27:38;95162.53;;;9.38;100.00
13027;BME280;6580;42.680;23.324;2022-12-07T09:30:06;95168.81;;;9.20;100.00
13027;BME280;6580;42.680;23.324;2022-12-07T09:32:33;95156.63;;;9.09;100.00
13027;BME280;6580;42.680;23.324;2022-12-07T09:35:00;95151.97;;;9.11;100.00
13027;BME280;6580;42.680;23.324;2022-12-07T09:37:27;95130.38;;;9.49;100.00
13027;BME280;6580;42.680;23.324;2022-12-07T09:39:54;95135.91;;;9.73;100.00
13027;BME280;6580;42.680;23.324;2022-12-07T09:42:28;95133.56;;;10.13;98.10
13027;BME280;6580;42.680;23.324;2022-12-07T09:44:58;95121.16;;;9.79;97.21
13027;BME280;6580;42.680;23.324;2022-12-07T09:47:27;95122.72;;;9.89;98.99
13027;BME280;6580;42.680;23.324;2022-12-07T09:50:00;95121.03;;;9.88;98.62
13027;BME280;6580;42.680;23.324;2022-12-07T09:52:30;95127.81;;;10.25;95.99
13027;BME280;6580;42.680;23.324;2022-12-07T09:54:57;95116.38;;;10.41;94.50
13027;BME280;6580;42.680;23.324;2022-12-07T09:57:29;95113.50;;;10.26;95.06
13027;BME280;6580;42.680;23.324;2022-12-07T10:00:00;95118.34;;;10.31;94.27
13027;BME280;6580;42.680;23.324;2022-12-07T10:02:36;95119.59;;;10.44;94.12
13027;BME280;6580;42.680;23.324;2022-12-07T10:05:05;95115.94;;;10.53;93.58
13027;BME280;6580;42.680;23.324;2022-12-07T10:07:34;95117.53;;;10.72;92.11
13027;BME280;6580;42.680;23.324;2022-12-07T10:10:04;95106.44;;;10.92;90.24
13027;BME280;6580;42.680;23.324;2022-12-07T10:12:53;95099.75;;;10.88;91.32
13027;BME280;6580;42.680;23.324;2022-12-07T10:15:20;95095.50;;;10.54;91.52
13027;BME280;6580;42.680;23.324;2022-12-07T10:17:48;95099.59;;;10.40;93.87
13027;BME280;6580;42.680;23.324;2022-12-07T10:20:22;95087.47;;;10.95;92.13
13027;BME280;6580;42.680;23.324;2022-12-07T10:23:01;95083.19;;;11.34;87.85
13027;BME280;6580;42.680;23.324;2022-12-07T10:25:31;95075.53;;;11.63;86.66
13027;BME280;6580;42.680;23.324;2022-12-07T10:28:12;95076.31;;;11.95;84.01
13027;BME280;6580;42.680;23.324;2022-12-07T10:30:55;95056.00;;;11.70;82.93
13027;BME280;6580;42.680;23.324;2022-12-07T10:33:35;95063.69;;;11.81;82.47
13027;BME280;6580;42.680;23.324;2022-12-07T10:36:17;95064.63;;;12.04;81.53
13027;BME280;6580;42.680;23.324;2022-12-07T10:38:47;95060.34;;;11.79;82.50
13027;BME280;6580;42.680;23.324;2022-12-07T10:41:15;95056.31;;;11.83;81.67
13027;BME280;6580;42.680;23.324;2022-12-07T10:43:49;95062.66;;;11.90;82.15
13027;BME280;6580;42.680;23.324;2022-12-07T10:49:31;95041.84;;;11.46;83.29
13027;BME280;6580;42.680;23.324;2022-12-07T10:52:09;95052.84;;;11.59;82.90
13027;BME280;6580;42.680;23.324;2022-12-07T10:54:46;95045.38;;;11.54;82.68
13027;BME280;6580;42.680;23.324;2022-12-07T10:57:37;95043.50;;;11.47;83.08
13027;BME280;6580;42.680;23.324;2022-12-07T11:00:17;95028.31;;;11.47;84.40
13027;BME280;6580;42.680;23.324;2022-12-07T11:02:59;95028.66;;;11.52;83.50
13027;BME280;6580;42.680;23.324;2022-12-07T11:05:38;95017.19;;;11.60;83.82
13027;BME280;6580;42.680;23.324;2022-12-07T11:08:14;95004.94;;;11.89;81.76
13027;BME280;6580;42.680;23.324;2022-12-07T11:10:48;95015.09;;;12.02;80.42
13027;BME280;6580;42.680;23.324;2022-12-07T11:13:25;95021.41;;;12.09;79.66
13027;BME280;6580;42.680;23.324;2022-12-07T11:22:03;95009.69;;;12.17;79.47
13027;BME280;6580;42.680;23.324;2022-12-07T11:24:41;95002.03;;;12.14;78.86
13027;BME280;6580;42.680;23.324;2022-12-07T11:27:22;95002.69;;;12.16;79.59
13027;BME280;6580;42.680;23.324;2022-12-07T11:30:02;95000.44;;;12.36;78.29
13027;BME280;6580;42.680;23.324;2022-12-07T11:32:45;94992.94;;;12.31;78.18
13027;BME280;6580;42.680;23.324;2022-12-07T11:35:24;94972.94;;;13.33;74.04
13027;BME280;6580;42.680;23.324;2022-12-07T11:37:59;94965.56;;;15.42;63.61
13027;BME280;6580;42.680;23.324;2022-12-07T11:40:30;94958.78;;;15.25;61.11
13027;BME280;6580;42.680;23.324;2022-12-07T11:43:03;94966.03;;;15.45;59.38
13027;BME280;6580;42.680;23.324;2022-12-07T11:45:34;94961.31;;;14.56;61.70
13027;BME280;6580;42.680;23.324;2022-12-07T11:48:09;94965.41;;;13.51;66.25
13027;BME280;6580;42.680;23.324;2022-12-07T11:50:39;94966.50;;;13.19;69.49
13027;BME280;6580;42.680;23.324;2022-12-07T11:53:18;94974.78;;;13.10;70.21
13027;BME280;6580;42.680;23.324;2022-12-07T11:55:52;94966.00;;;12.71;72.89
13027;BME280;6580;42.680;23.324;2022-12-07T11:58:36;94961.00;;;12.99;71.75
13027;BME280;6580;42.680;23.324;2022-12-07T12:01:14;94955.09;;;14.49;67.27
13027;BME280;6580;42.680;23.324;2022-12-07T12:03:47;94928.53;;;15.86;58.45
13027;BME280;6580;42.680;23.324;2022-12-07T12:06:15;94945.81;;;17.04;53.02
13027;BME280;6580;42.680;23.324;2022-12-07T12:08:46;94927.47;;;17.40;51.06
13027;BME280;6580;42.680;23.324;2022-12-07T12:11:29;94941.91;;;16.40;53.26
13027;BME280;6580;42.680;23.324;2022-12-07T12:14:14;94935.66;;;16.00;54.77
13027;BME280;6580;42.680;23.324;2022-12-07T12:16:58;94933.81;;;15.45;57.26
13027;BME280;6580;42.680;23.324;2022-12-07T12:19:33;94928.81;;;15.63;58.17
13027;BME280;6580;42.680;23.324;2022-12-07T12:22:08;94919.28;;;16.82;54.20
13027;BME280;6580;42.680;23.324;2022-12-07T12:24:40;94911.69;;;18.08;49.52
13027;BME280;6580;42.680;23.324;2022-12-07T12:27:14;94911.59;;;18.97;46.57
13027;BME280;6580;42.680;23.324;2022-12-07T12:29:44;94908.69;;;18.55;46.58
13027;BME280;6580;42.680;23.324;2022-12-07T12:32:14;94902.59;;;18.03;47.18
13027;BME280;6580;42.680;23.324;2022-12-07T12:35:00;94900.22;;;16.77;50.78
13027;BME280;6580;42.680;23.324;2022-12-07T12:37:40;94895.88;;;16.16;53.57
13027;BME280;6580;42.680;23.324;2022-12-07T12:43:47;94884.81;;;16.38;53.34
13027;BME280;6580;42.680;23.324;2022-12-07T12:46:47;94882.28;;;18.00;49.61
13027;BME280;6580;42.680;23.324;2022-12-07T12:49:38;94883.69;;;19.41;45.88
13027;BME280;6580;42.680;23.324;2022-12-07T12:55:13;94859.53;;;19.70;43.11
13027;BME280;6580;42.680;23.324;2022-12-07T12:57:44;94888.66;;;19.68;43.41
13027;BME280;6580;42.680;23.324;2022-12-07T13:00:18;94895.47;;;19.95;42.46
13027;BME280;6580;42.680;23.324;2022-12-07T13:02:58;94900.84;;;19.52;43.17
13027;BME280;6580;42.680;23.324;2022-12-07T13:05:31;94888.13;;;18.60;44.85
13027;BME280;6580;42.680;23.324;2022-12-07T13:08:04;94899.13;;;17.50;47.73
13027;BME280;6580;42.680;23.324;2022-12-07T13:10:47;94892.97;;;16.18;51.75
13027;BME280;6580;42.680;23.324;2022-12-07T13:13:33;94902.19;;;15.20;56.11
13027;BME280;6580;42.680;23.324;2022-12-07T13:22:44;94896.28;;;14.12;64.11
13027;BME280;6580;42.680;23.324;2022-12-07T13:25:23;94913.75;;;13.79;66.73
13027;BME280;6580;42.680;23.324;2022-12-07T13:27:57;94906.25;;;13.89;66.46
13027;BME280;6580;42.680;23.324;2022-12-07T13:30:26;94900.91;;;13.75;66.95
13027;BME280;6580;42.680;23.324;2022-12-07T13:32:59;94900.72;;;13.62;68.44
13027;BME280;6580;42.680;23.324;2022-12-07T13:35:31;94903.59;;;13.60;68.62
13027;BME280;6580;42.680;23.324;2022-12-07T13:38:02;94901.00;;;13.67;68.95
13027;BME280;6580;42.680;23.324;2022-12-07T13:40:31;94885.94;;;13.51;69.57
13027;BME280;6580;42.680;23.324;2022-12-07T13:42:58;94882.97;;;13.18;72.07
13027;BME280;6580;42.680;23.324;2022-12-07T13:45:27;94889.78;;;13.20;73.01
13027;BME280;6580;42.680;23.324;2022-12-07T13:48:12;94888.97;;;13.19;73.63